createdAt,value
2017-06-22T00:01:40.347Z,25.20
2017-06-22T00:04:08.451Z,25.10
2017-06-22T00:06:36.703Z,25.10
2017-06-22T00:09:04.807Z,25.10
2017-06-22T00:11:32.909Z,25.00
2017-06-22T00:14:01.050Z,25.00
2017-06-22T00:16:29.156Z,25.00
2017-06-22T00:18:57.256Z,24.90
2017-06-22T00:21:25.380Z,24.90
2017-06-22T00:23:53.491Z,24.80
2017-06-22T00:26:21.587Z,24.80
2017-06-22T00:28:49.832Z,24.70
2017-06-22T00:31:17.944Z,24.60
2017-06-22T00:33:46.044Z,24.60
2017-06-22T00:36:14.944Z,24.60
2017-06-22T00:38:43.057Z,24.60
2017-06-22T00:41:11.158Z,24.60
2017-06-22T00:43:39.305Z,24.50
2017-06-22T00:46:07.408Z,24.50
2017-06-22T00:48:35.518Z,24.40
2017-06-22T00:51:03.745Z,24.40
2017-06-22T00:53:31.845Z,24.50
2017-06-22T00:55:59.995Z,24.40
2017-06-22T00:58:28.104Z,24.30
2017-06-22T01:00:56.201Z,24.30
2017-06-22T01:03:24.327Z,24.30
2017-06-22T01:05:52.434Z,24.30
2017-06-22T01:08:20.701Z,24.30
2017-06-22T01:10:48.800Z,24.20
2017-06-22T01:13:16.949Z,24.20
2017-06-22T01:15:45.058Z,24.10
2017-06-22T01:18:13.329Z,24.10
2017-06-22T01:20:41.435Z,24.10
2017-06-22T01:23:10.312Z,24.10
2017-06-22T01:25:39.649Z,24.00
2017-06-22T01:28:07.788Z,24.00
2017-06-22T01:30:35.906Z,24.00
2017-06-22T01:33:04.013Z,24.00
2017-06-22T01:35:32.260Z,24.00
2017-06-22T01:38:00.360Z,24.00
2017-06-22T01:40:28.497Z,24.00
2017-06-22T01:42:56.596Z,24.00
2017-06-22T01:45:24.698Z,24.00
2017-06-22T01:47:52.945Z,24.00
2017-06-22T01:50:21.077Z,24.00
2017-06-22T01:52:49.184Z,24.00
2017-06-22T01:55:18.097Z,23.90
2017-06-22T01:57:46.200Z,23.90
2017-06-22T02:00:14.301Z,23.90
2017-06-22T02:02:42.541Z,23.90
2017-06-22T02:05:10.644Z,23.90
2017-06-22T02:07:38.776Z,23.90
2017-06-22T02:10:06.881Z,23.80
2017-06-22T02:12:35.016Z,23.80
2017-06-22T02:15:03.116Z,23.80
2017-06-22T02:17:31.985Z,23.80
2017-06-22T02:20:00.233Z,23.80
2017-06-22T02:22:28.333Z,23.70
2017-06-22T02:24:56.432Z,23.70
2017-06-22T02:27:25.325Z,23.70
2017-06-22T02:29:53.467Z,23.70
2017-06-22T02:32:21.567Z,23.70
2017-06-22T02:34:49.673Z,23.70
2017-06-22T02:37:17.914Z,23.60
2017-06-22T02:39:46.011Z,23.60
2017-06-22T02:42:14.107Z,23.60
2017-06-22T02:44:42.281Z,23.60
2017-06-22T02:47:11.153Z,23.60
2017-06-22T02:49:39.255Z,23.60
2017-06-22T02:52:07.397Z,23.50
2017-06-22T02:54:35.524Z,23.60
2017-06-22T02:57:03.618Z,23.50
2017-06-22T02:59:31.757Z,23.50
2017-06-22T03:02:00.629Z,23.50
2017-06-22T03:04:28.872Z,23.50
2017-06-22T03:06:56.976Z,23.50
2017-06-22T03:09:25.100Z,23.40
2017-06-22T03:11:53.205Z,23.40
2017-06-22T03:14:21.319Z,23.30
2017-06-22T03:16:49.569Z,23.30
2017-06-22T03:19:17.670Z,23.30
2017-06-22T03:21:46.996Z,23.30
2017-06-22T03:24:15.092Z,23.30
2017-06-22T03:26:43.226Z,23.20
2017-06-22T03:29:11.368Z,23.20
2017-06-22T03:31:39.613Z,23.10
2017-06-22T03:34:08.475Z,23.10
2017-06-22T03:36:36.623Z,23.10
2017-06-22T03:39:04.740Z,23.00
2017-06-22T03:41:32.840Z,23.00
2017-06-22T03:44:00.976Z,23.00
2017-06-22T03:46:29.081Z,22.90
2017-06-22T03:48:57.946Z,22.90
2017-06-22T03:51:26.391Z,22.90
2017-06-22T03:53:54.516Z,22.90
2017-06-22T03:56:22.616Z,22.90
2017-06-22T03:58:51.492Z,22.80
2017-06-22T04:01:19.740Z,22.80
2017-06-22T04:03:47.843Z,22.80
2017-06-22T04:06:15.982Z,22.80
2017-06-22T04:08:44.084Z,22.80
2017-06-22T04:11:12.184Z,22.90
2017-06-22T04:13:40.326Z,22.90
2017-06-22T04:16:08.421Z,22.90
2017-06-22T04:18:36.536Z,22.90
2017-06-22T04:21:05.557Z,23.00
2017-06-22T04:23:33.661Z,22.90
2017-06-22T04:26:01.762Z,23.00
2017-06-22T04:28:29.904Z,23.00
2017-06-22T04:30:58.020Z,23.10
2017-06-22T04:33:26.123Z,23.00
2017-06-22T04:35:54.240Z,23.10
2017-06-22T04:38:22.488Z,23.10
2017-06-22T04:40:50.589Z,23.10
2017-06-22T04:43:18.700Z,23.20
2017-06-22T04:45:46.840Z,23.30
2017-06-22T04:48:14.943Z,23.40
2017-06-22T04:50:43.066Z,23.40
2017-06-22T04:53:11.161Z,23.50
2017-06-22T04:55:39.408Z,23.60
2017-06-22T04:58:08.277Z,23.70
2017-06-22T05:00:36.376Z,23.60
2017-06-22T05:03:04.507Z,23.70
2017-06-22T05:05:32.629Z,23.80
2017-06-22T05:08:00.754Z,23.80
2017-06-22T05:10:28.857Z,23.80
2017-06-22T05:12:57.094Z,23.90
2017-06-22T05:15:25.209Z,23.80
2017-06-22T05:17:53.340Z,23.80
2017-06-22T05:20:21.493Z,23.80
2017-06-22T05:22:49.570Z,23.80
2017-06-22T05:25:17.717Z,23.90
2017-06-22T05:27:45.821Z,24.00
2017-06-22T05:30:13.928Z,24.00
2017-06-22T05:32:42.080Z,24.10
2017-06-22T05:35:10.228Z,24.10
2017-06-22T05:37:38.321Z,24.00
2017-06-22T05:40:06.450Z,24.00
2017-06-22T06:07:13.087Z,24.00
2017-06-22T06:09:41.189Z,25.70
2017-06-22T06:12:10.073Z,25.70
2017-06-22T06:14:38.201Z,25.70
2017-06-22T06:17:06.313Z,25.70
2017-06-22T06:19:34.565Z,25.80
2017-06-22T06:22:02.668Z,25.70
2017-06-22T06:24:30.789Z,25.70
2017-06-22T06:26:58.923Z,25.80
2017-06-22T06:29:27.023Z,25.90
2017-06-22T06:31:55.907Z,25.90
2017-06-22T06:34:24.040Z,25.90
2017-06-22T06:36:52.140Z,25.90
2017-06-22T06:39:20.248Z,26.00
2017-06-22T06:41:48.400Z,26.10
2017-06-22T06:44:16.512Z,26.20
2017-06-22T06:46:45.393Z,26.40
2017-06-22T06:49:13.532Z,26.40
2017-06-22T06:51:41.644Z,26.40
2017-06-22T06:54:09.743Z,26.50
2017-06-22T06:56:38.784Z,26.80
2017-06-22T06:59:06.868Z,26.70
2017-06-22T07:01:34.972Z,26.90
2017-06-22T07:04:03.104Z,27.00
2017-06-22T07:06:31.198Z,27.10
2017-06-22T07:08:59.309Z,27.20
2017-06-22T07:11:27.433Z,27.20
2017-06-22T07:13:55.677Z,27.40
2017-06-22T07:16:23.781Z,27.50
2017-06-22T07:18:51.888Z,27.60
2017-06-22T07:21:20.150Z,27.60
2017-06-22T07:23:48.302Z,27.70
2017-06-22T07:26:17.168Z,27.90
2017-06-22T07:28:45.272Z,27.90
2017-06-22T07:31:14.296Z,28.30
2017-06-22T07:33:42.396Z,28.20
2017-06-22T07:36:10.492Z,28.20
2017-06-22T07:38:38.631Z,28.30
2017-06-22T07:41:06.725Z,28.40
2017-06-22T07:43:34.840Z,28.60
2017-06-22T07:46:03.853Z,28.80
2017-06-22T07:48:32.719Z,29.00
2017-06-22T07:51:00.829Z,28.90
2017-06-22T07:53:28.973Z,29.00
2017-06-22T07:55:57.073Z,29.10
2017-06-22T07:58:25.937Z,29.30
2017-06-22T08:00:54.066Z,29.30
2017-06-22T08:03:22.233Z,29.50
2017-06-22T08:05:50.333Z,29.60
2017-06-22T08:08:18.431Z,29.70
2017-06-22T08:10:46.549Z,29.80
2017-06-22T08:13:15.413Z,29.90
2017-06-22T08:15:43.540Z,29.90
2017-06-22T08:18:11.632Z,30.00
2017-06-22T08:20:39.735Z,30.10
2017-06-22T08:23:07.972Z,30.20
2017-06-22T08:25:36.060Z,30.20
2017-06-22T08:28:04.185Z,30.20
2017-06-22T08:30:32.341Z,30.30
2017-06-22T08:33:00.461Z,30.40
2017-06-22T08:35:29.331Z,30.40
2017-06-22T08:37:57.414Z,30.40
2017-06-22T08:40:25.641Z,30.40
2017-06-22T08:42:53.732Z,30.50
2017-06-22T08:45:21.832Z,30.50
2017-06-22T08:47:49.984Z,30.50
2017-06-22T08:50:18.092Z,30.60
2017-06-22T08:52:46.212Z,30.80
2017-06-22T08:55:14.457Z,30.80
2017-06-22T08:57:42.544Z,31.00
2017-06-22T09:00:10.650Z,31.10
2017-06-22T09:02:38.792Z,31.10
2017-06-22T09:05:06.889Z,31.10
2017-06-22T09:07:35.749Z,31.40
2017-06-22T09:10:03.873Z,31.40
2017-06-22T09:12:32.721Z,31.70
2017-06-22T09:15:00.883Z,31.70
2017-06-22T09:17:28.997Z,31.80
2017-06-22T09:19:57.093Z,31.80
2017-06-22T09:22:25.205Z,31.90
2017-06-22T09:24:53.345Z,32.00
2017-06-22T09:27:22.212Z,32.20
2017-06-22T09:29:50.301Z,32.20
2017-06-22T09:32:19.309Z,32.50
2017-06-22T09:34:47.413Z,32.50
2017-06-22T09:37:15.512Z,32.60
2017-06-22T09:39:43.637Z,32.70
2017-06-22T09:42:12.509Z,32.90
2017-06-22T09:44:40.602Z,32.90
2017-06-22T09:47:09.490Z,33.40
2017-06-22T09:49:37.581Z,33.30
2017-06-22T09:52:06.508Z,33.60
2017-06-22T09:54:34.593Z,33.60
2017-06-22T09:57:02.727Z,33.70
2017-06-22T09:59:31.611Z,33.50
2017-06-22T10:01:59.708Z,33.50
2017-06-22T10:04:28.575Z,33.70
2017-06-22T10:06:56.727Z,33.70
2017-06-22T10:09:24.827Z,33.80
2017-06-22T10:11:52.927Z,34.00
2017-06-22T10:14:21.812Z,34.10
2017-06-22T10:16:49.897Z,34.10
2017-06-22T10:19:18.777Z,34.20
2017-06-22T10:21:46.901Z,34.20
2017-06-22T10:24:14.988Z,34.20
2017-06-22T10:26:43.244Z,34.30
2017-06-22T10:29:11.332Z,34.30
2017-06-22T10:31:39.428Z,34.40
2017-06-22T10:34:07.540Z,34.40
2017-06-22T10:36:35.668Z,34.30
2017-06-22T10:39:03.761Z,34.40
2017-06-22T10:41:31.864Z,34.40
2017-06-22T10:44:00.084Z,34.40
2017-06-22T10:46:28.196Z,34.40
2017-06-22T10:48:56.308Z,34.60
2017-06-22T10:51:25.173Z,34.70
2017-06-22T10:53:53.282Z,34.70
2017-06-22T10:56:21.406Z,34.70
2017-06-22T10:58:49.560Z,34.70
2017-06-22T11:01:17.653Z,34.70
2017-06-22T11:03:45.817Z,34.70
2017-06-22T11:06:13.912Z,34.70
2017-06-22T11:08:42.005Z,34.80
2017-06-22T11:11:10.124Z,34.80
2017-06-22T11:13:38.987Z,34.60
2017-06-22T11:16:07.121Z,34.60
2017-06-22T11:18:35.223Z,34.70
2017-06-22T11:21:03.311Z,34.70
2017-06-22T11:23:31.550Z,34.90
2017-06-22T11:25:59.690Z,35.10
2017-06-22T11:28:27.771Z,35.30
2017-06-22T11:30:55.869Z,35.50
2017-06-22T11:33:24.792Z,35.50
2017-06-22T11:35:52.889Z,35.50
2017-06-22T11:38:20.993Z,35.70
2017-06-22T11:40:49.119Z,35.80
2017-06-22T11:43:17.214Z,35.80
2017-06-22T11:45:45.315Z,35.80
2017-06-22T11:48:13.446Z,35.90
2017-06-22T11:50:41.540Z,35.90
2017-06-22T11:53:09.784Z,36.00
2017-06-22T11:55:38.648Z,36.00
2017-06-22T11:58:06.732Z,35.90
2017-06-22T12:00:34.869Z,36.10
2017-06-22T12:03:02.973Z,36.30
2017-06-22T12:05:31.117Z,36.60
2017-06-22T12:07:59.228Z,36.70
2017-06-22T12:10:27.316Z,36.80
2017-06-22T12:12:56.836Z,37.00
2017-06-22T12:15:24.925Z,37.00
2017-06-22T12:17:53.793Z,37.10
2017-06-22T12:20:21.920Z,37.10
2017-06-22T12:22:50.015Z,37.10
2017-06-22T12:25:18.112Z,37.00
2017-06-22T12:27:46.364Z,36.90
2017-06-22T12:30:14.466Z,36.90
2017-06-22T12:32:42.580Z,36.80
2017-06-22T12:35:10.675Z,36.90
2017-06-22T12:37:38.804Z,36.80
2017-06-22T12:40:06.889Z,36.80
2017-06-22T12:42:35.129Z,36.70
2017-06-22T12:45:03.223Z,36.70
2017-06-22T12:47:31.322Z,36.70
2017-06-22T12:49:59.555Z,36.80
2017-06-22T12:52:27.644Z,36.90
2017-06-22T12:54:55.771Z,37.10
2017-06-22T12:57:23.869Z,37.10
2017-06-22T12:59:52.744Z,37.10
2017-06-22T13:02:20.865Z,37.10
2017-06-22T13:04:49.088Z,37.10
2017-06-22T13:07:17.197Z,37.10
2017-06-22T13:09:45.293Z,36.90
2017-06-22T13:12:13.524Z,36.80
2017-06-22T13:14:41.609Z,36.70
2017-06-22T13:17:10.517Z,36.90
2017-06-22T13:19:38.618Z,36.90
2017-06-22T13:22:06.713Z,36.80
2017-06-22T13:24:34.946Z,36.40
2017-06-22T13:27:03.052Z,36.20
2017-06-22T13:29:31.181Z,36.00
2017-06-22T13:31:59.304Z,35.80
2017-06-22T13:34:27.397Z,35.70
2017-06-22T13:36:55.502Z,35.60
2017-06-22T13:39:23.624Z,35.40
2017-06-22T13:41:51.718Z,35.40
2017-06-22T13:44:19.964Z,35.20
2017-06-22T13:46:48.037Z,35.20
2017-06-22T13:49:16.146Z,35.10
2017-06-22T13:51:44.373Z,35.00
2017-06-22T13:54:12.476Z,34.90
2017-06-22T13:56:41.374Z,34.70
2017-06-22T13:59:09.472Z,34.70
2017-06-22T14:01:37.578Z,34.60
2017-06-22T14:04:05.843Z,34.50
2017-06-22T14:06:33.981Z,34.50
2017-06-22T14:09:02.089Z,34.30
2017-06-22T14:11:30.189Z,34.20
2017-06-22T14:13:58.316Z,34.10
2017-06-22T14:16:27.189Z,34.00
2017-06-22T14:18:55.345Z,33.90
2017-06-22T14:21:23.450Z,33.80
2017-06-22T14:23:51.544Z,33.80
2017-06-22T14:26:20.432Z,33.60
2017-06-22T14:28:48.613Z,33.60
2017-06-22T14:31:17.488Z,33.50
2017-06-22T14:33:45.596Z,33.50
2017-06-22T14:36:13.738Z,33.50
2017-06-22T14:38:41.820Z,33.50
2017-06-22T14:41:09.914Z,33.30
2017-06-22T14:43:38.810Z,33.20
2017-06-22T14:46:06.915Z,33.20
2017-06-22T14:48:35.017Z,33.20
2017-06-22T14:51:03.284Z,33.20
2017-06-22T14:53:31.416Z,33.20
2017-06-22T14:55:59.491Z,33.30
2017-06-22T14:58:28.377Z,33.50
2017-06-22T15:00:56.505Z,33.50
2017-06-22T15:03:24.608Z,33.50
2017-06-22T15:05:52.729Z,33.50
2017-06-22T15:08:21.748Z,33.60
2017-06-22T15:10:50.047Z,33.60
2017-06-22T15:13:18.218Z,33.70
2017-06-22T15:15:46.404Z,33.80
2017-06-22T15:18:14.469Z,33.80
2017-06-22T15:20:42.584Z,33.80
2017-06-22T15:23:10.758Z,33.90
2017-06-22T15:25:38.926Z,34.00
2017-06-22T15:28:07.049Z,34.00
2017-06-22T15:30:35.188Z,34.00
2017-06-22T15:33:03.280Z,34.10
2017-06-22T15:35:31.380Z,34.10
2017-06-22T15:38:00.273Z,34.00
2017-06-22T15:40:29.296Z,34.00
2017-06-22T15:42:57.396Z,33.90
2017-06-22T15:45:25.500Z,34.00
2017-06-22T15:47:53.633Z,34.00
2017-06-22T15:50:21.874Z,33.90
2017-06-22T15:52:49.988Z,33.90
2017-06-22T15:55:18.188Z,33.80
2017-06-22T15:57:46.307Z,33.90
2017-06-22T16:00:14.479Z,34.00
2017-06-22T16:02:42.573Z,34.00
2017-06-22T16:05:11.479Z,34.10
2017-06-22T16:07:39.581Z,34.10
2017-06-22T16:10:07.690Z,34.00
2017-06-22T16:12:35.951Z,34.20
2017-06-22T16:15:05.242Z,34.20
2017-06-22T16:17:33.317Z,34.30
2017-06-22T16:20:01.453Z,34.40
2017-06-22T16:22:29.538Z,34.40
2017-06-22T16:24:57.642Z,34.50
2017-06-22T16:27:25.768Z,34.70
2017-06-22T16:29:53.912Z,34.80
2017-06-22T16:32:22.172Z,34.80
2017-06-22T16:34:50.276Z,34.80
2017-06-22T16:37:18.368Z,34.70
2017-06-22T16:39:46.512Z,34.70
2017-06-22T16:42:14.677Z,34.60
2017-06-22T16:44:42.741Z,34.50
2017-06-22T16:47:10.866Z,34.20
2017-06-22T16:49:39.007Z,34.10
2017-06-22T16:52:07.082Z,34.00
2017-06-22T16:54:35.310Z,33.90
2017-06-22T16:57:03.457Z,33.90
2017-06-22T16:59:31.541Z,33.70
2017-06-22T17:01:59.639Z,33.70
2017-06-22T17:04:27.777Z,33.70
2017-06-22T17:06:55.889Z,33.60
2017-06-22T17:09:23.989Z,33.40
2017-06-22T17:11:52.245Z,33.40
2017-06-22T17:14:20.340Z,33.30
2017-06-22T17:16:48.449Z,33.20
2017-06-22T17:19:16.623Z,33.20
2017-06-22T17:21:44.713Z,33.20
2017-06-22T17:24:12.825Z,33.20
2017-06-22T17:26:41.045Z,33.20
2017-06-22T17:29:09.908Z,33.10
2017-06-22T17:31:38.061Z,33.10
2017-06-22T17:34:06.167Z,33.10
2017-06-22T17:36:34.289Z,33.00
2017-06-22T17:39:02.566Z,32.90
2017-06-22T17:41:30.677Z,32.90
2017-06-22T17:43:58.776Z,32.80
2017-06-22T17:46:26.953Z,32.80
2017-06-22T17:48:55.047Z,32.80
2017-06-22T17:51:23.142Z,32.80
2017-06-22T17:53:52.152Z,32.80
2017-06-22T17:56:20.281Z,32.80
2017-06-22T17:58:49.552Z,32.80
2017-06-22T18:01:17.686Z,32.80
2017-06-22T18:03:45.785Z,32.80
2017-06-22T18:06:13.897Z,32.80
2017-06-22T18:08:42.177Z,32.80
2017-06-22T18:11:10.277Z,32.80
2017-06-22T18:13:38.385Z,32.90
2017-06-22T18:16:07.297Z,32.90
2017-06-22T18:18:35.429Z,32.90
2017-06-22T18:21:03.537Z,33.00
2017-06-22T18:23:32.438Z,32.90
2017-06-22T18:26:01.310Z,32.90
2017-06-22T18:28:29.397Z,32.80
2017-06-22T18:30:59.617Z,32.70
2017-06-22T18:33:27.725Z,32.70
2017-06-22T18:35:55.835Z,32.60
2017-06-22T18:38:23.966Z,32.40
2017-06-22T18:40:52.856Z,32.20
2017-06-22T18:43:21.729Z,32.10
2017-06-22T18:45:49.850Z,32.10
2017-06-22T18:48:18.114Z,32.10
2017-06-22T18:50:46.981Z,32.10
2017-06-22T18:53:15.089Z,32.10
2017-06-22T18:55:43.223Z,32.10
2017-06-22T18:58:11.337Z,32.10
2017-06-22T19:00:40.226Z,32.20
2017-06-22T19:03:08.351Z,32.10
2017-06-22T19:05:36.461Z,32.20
2017-06-22T19:08:04.712Z,32.20
2017-06-22T19:10:32.797Z,32.10
2017-06-22T19:13:00.905Z,32.00
2017-06-22T19:15:29.085Z,32.00
2017-06-22T19:17:57.179Z,32.10
2017-06-22T19:20:26.053Z,32.00
2017-06-22T19:22:54.182Z,32.00
2017-06-22T19:25:22.311Z,32.00
2017-06-22T19:27:50.405Z,31.90
2017-06-22T19:30:19.332Z,31.80
2017-06-22T19:32:47.424Z,31.80
2017-06-22T19:35:15.525Z,31.80
2017-06-22T19:37:43.724Z,31.70
2017-06-22T19:40:12.270Z,31.70
2017-06-22T19:42:40.368Z,31.70
2017-06-22T19:45:08.515Z,31.70
2017-06-22T19:47:36.624Z,31.80
2017-06-22T19:50:04.733Z,31.80
2017-06-22T19:52:33.002Z,31.80
2017-06-22T19:55:01.120Z,31.80
2017-06-22T19:57:29.231Z,31.70
2017-06-22T19:59:57.380Z,31.70
2017-06-22T20:02:25.479Z,31.60
2017-06-22T20:04:53.587Z,31.40
2017-06-22T20:07:21.735Z,31.30
2017-06-22T20:09:49.830Z,31.30
2017-06-22T20:12:17.964Z,31.10
2017-06-22T20:14:46.070Z,31.00
2017-06-22T20:17:14.189Z,30.90
2017-06-22T20:19:42.344Z,30.80
2017-06-22T20:22:10.450Z,30.70
2017-06-22T20:24:38.553Z,30.60
2017-06-22T20:27:06.817Z,30.50
2017-06-22T20:29:34.906Z,30.40
2017-06-22T20:32:03.065Z,30.40
2017-06-22T20:34:31.188Z,30.30
2017-06-22T20:36:59.308Z,30.20
2017-06-22T20:39:28.220Z,30.10
2017-06-22T20:41:56.316Z,30.10
2017-06-22T20:44:24.426Z,30.00
2017-06-22T20:46:52.683Z,30.00
2017-06-22T20:49:20.790Z,30.00
2017-06-22T20:51:48.935Z,29.80
2017-06-22T20:54:17.038Z,29.80
2017-06-22T20:56:45.169Z,29.90
2017-06-22T20:59:13.258Z,29.80
2017-06-22T21:01:41.381Z,29.70
2017-06-22T21:04:09.605Z,29.80
2017-06-22T21:06:37.704Z,29.70
2017-06-22T21:09:05.817Z,29.70
2017-06-22T21:11:33.945Z,29.70
2017-06-22T21:14:02.070Z,29.70
2017-06-22T21:16:30.164Z,29.70
2017-06-22T21:18:59.069Z,29.70
2017-06-22T21:21:27.175Z,29.70
2017-06-22T21:23:55.273Z,29.70
2017-06-22T21:26:23.507Z,29.70
2017-06-22T21:28:51.654Z,29.70
2017-06-22T21:31:19.779Z,29.60
2017-06-22T21:33:47.895Z,29.60
2017-06-22T21:36:16.025Z,29.60
2017-06-22T21:38:44.127Z,29.60
2017-06-22T21:41:12.259Z,29.50
2017-06-22T21:43:41.261Z,29.50
2017-06-22T21:46:09.365Z,29.50
2017-06-22T21:48:37.447Z,29.50
2017-06-22T21:51:05.709Z,29.50
2017-06-22T21:53:33.805Z,29.50
2017-06-22T21:56:01.901Z,29.40
2017-06-22T21:58:30.045Z,29.30
2017-06-22T22:00:58.144Z,29.30
2017-06-22T22:03:26.235Z,29.30
2017-06-22T22:05:54.378Z,29.20
2017-06-22T22:08:22.486Z,29.20
2017-06-22T22:10:50.728Z,29.20
2017-06-22T22:13:18.840Z,29.20
2017-06-22T22:15:46.932Z,29.20
2017-06-22T22:18:15.063Z,29.20
2017-06-22T22:20:43.156Z,29.10
2017-06-22T22:23:11.264Z,29.10
2017-06-22T22:25:39.520Z,29.10
2017-06-22T22:28:07.613Z,29.10
2017-06-22T22:30:35.716Z,29.10
2017-06-22T22:33:04.661Z,28.90
2017-06-22T22:35:32.775Z,28.90
2017-06-22T22:38:00.849Z,28.80
2017-06-22T22:40:28.976Z,28.80
2017-06-22T22:42:57.072Z,28.70
2017-06-22T22:45:25.172Z,28.60
2017-06-22T22:47:53.424Z,28.50
2017-06-22T22:50:21.522Z,28.50
2017-06-22T22:52:49.618Z,28.40
2017-06-22T22:55:17.755Z,28.40
2017-06-22T22:57:45.852Z,28.40
2017-06-22T23:00:13.952Z,28.40
2017-06-22T23:02:42.079Z,28.30
2017-06-22T23:05:10.205Z,28.30
2017-06-22T23:07:38.284Z,28.30
2017-06-22T23:10:06.541Z,28.30
2017-06-22T23:12:34.636Z,28.30
2017-06-22T23:15:02.742Z,28.30
2017-06-22T23:17:30.884Z,28.30
2017-06-22T23:19:58.977Z,28.20
2017-06-22T23:22:27.059Z,28.30
2017-06-22T23:24:57.249Z,28.20
2017-06-22T23:27:25.338Z,28.20
2017-06-22T23:29:53.429Z,28.20
2017-06-22T23:32:21.677Z,28.20
2017-06-22T23:34:49.776Z,28.20
2017-06-22T23:37:17.870Z,28.20
2017-06-22T23:39:46.765Z,28.10
2017-06-22T23:42:14.857Z,28.10
2017-06-22T23:44:42.956Z,28.10
2017-06-22T23:47:11.201Z,28.10
2017-06-22T23:49:40.060Z,28.10
2017-06-22T23:52:08.163Z,28.10
2017-06-22T23:54:36.308Z,28.00
2017-06-22T23:57:04.408Z,28.00
2017-06-22T23:59:32.500Z,28.00
